Tiempo atmosférico en la estación meteorológica de Eivissa Aeropuerto, Illes Balears (6 m.)



Fecha
DESCASC
Temp. máxima en grados centígrados (hora)
DESCASC
Temp. mínima en grados centígrados (hora)
DESCASC
Temp. media en grados centígrados
DESCASC
Racha de viento máxima en m/sg (hora)
DESCASC
Velocidad máxima media en intervalos de 10 minutos(hora)
DESCASC
Precipitaciones diarias en mm
DESCASC
Precipitaciones de 00:00 a 06:00 en mm
DESCASC
Precipitaciones de 06:00 a 12:00 en mm
DESCASC
Precipitaciones de 12:00 a 18:00 en mm
DESCASC
Precipitaciones de 18:00 a 24:00 en mm
DESCASC

Gráficas

Temp. máximas Temp. mínimas Temp. medias Precipitaciones Rachas de viento máximas Velocidades máximas media en intervalos de 10 minutos

Datos horarios

Fecha y hora oficial Temperatura (ºC) Velocidad del viento (km/h) Dirección del viento Racha (km/h) Dirección de racha Precipitación (mm) Presión (hPa) Tendencia (hPa) Humedad (%)
2020-08-05 23:00:00 24.6 8 Sudeste 15 Sur 0 1012.5 1.3 69
2020-08-05 22:00:00 25.1 10 Sudeste 17 Sudeste 0 1012 0.9 66
2020-08-05 21:00:00 25.7 10 Sudeste 22 Sudeste 0 1011.5 0.4 66
2020-08-05 20:00:00 27 14 Sudeste 24 Sudeste 0 1011.2 -0.1 61
2020-08-05 19:00:00 27.7 13 Este 24 Sudeste 0 1011.1 -0.5 61
2020-08-05 18:00:00 28.7 15 Sudeste 33 Norte 0 1011.1 -- 59
2020-08-05 17:00:00 29.3 12 Sudeste 28 Sur 0 1011.3 -- 58
2020-08-05 16:00:00 29.2 17 Sur 30 Sur 0 1011.6 -- 59
2020-08-05 15:00:00 29 14 Sur 30 Sur 0 1012 -- 59
2020-08-05 14:00:00 28.5 16 Sudeste 28 Sudeste 0 1012.3 -- 61
2020-08-05 13:00:00 28.2 12 Sudeste 26 Sudeste 0 1012.6 -- 61
2020-08-05 12:00:00 28.9 13 Sudeste 30 Sudoeste 0 1012.9 -- 58
2020-08-05 11:00:00 28.1 7 Sur 22 Sudeste 0 1012.8 -- 58
2020-08-05 10:00:00 27.2 12 Sudeste 24 Sudeste 0 1012.5 -- 64
2020-08-05 09:00:00 25.9 13 Sudeste 21 Sudeste 0 1012.3 -- 68
2020-08-05 08:00:00 22.7 2 Norte 9 Norte 0 1012.1 -- 84
2020-08-05 07:00:00 20.6 6 Norte 11 Norte 0 1011.7 -- 90
2020-08-05 06:00:00 20.7 10 Norte 13 Norte 0 1011.5 -- 90
2020-08-05 05:00:00 20.7 7 Noroeste 11 Norte 0 1011.5 -- 89
2020-08-05 04:00:00 21 6 Norte 11 Norte 0 1011.6 -- 88
2020-08-05 03:00:00 21.4 7 Noroeste 9 Norte 0 1011.9 -- 87
2020-08-05 02:00:00 21.9 6 Noroeste 9 Noroeste 0 1012.4 -- 85
2020-08-05 01:00:00 23.6 7 Sudeste 11 Sudeste 0 1012.4 -- 77
2020-08-05 00:00:00 24.4 8 Sudeste 13 Sudeste 0 1012.5 -- 75
2020-08-04 23:00:00 24.7 9 Sudeste 15 Sur 0 1012.5 -- 73
2020-08-04 22:00:00 25 9 Sudeste 17 Sudeste 0 1012.1 -- 71
2020-08-04 21:00:00 25.7 10 Sudeste 21 Sudeste 0 1011.6 -- 68
2020-08-04 20:00:00 26.7 11 Sudeste 24 Sudeste 0 1011.2 -- 65
2020-08-04 19:00:00 27.4 15 Sudeste 22 Este 0 1011.1 -- 62
2020-08-04 18:00:00 28.5 15 Sur 26 Sur 0 1011.4 -- 60
2020-08-04 17:00:00 28.3 16 Sudoeste 26 Sudoeste 0 1011.3 -- 61
2020-08-04 16:00:00 28.4 17 Sudoeste 26 Sudoeste 0 1011.8 -- 59
2020-08-04 15:00:00 28.1 19 Sudoeste 26 Sudoeste 0.1 1012.3 -- 62
2020-08-04 14:00:00 27.7 13 Sur 22 Sur 0 1012.8 -- 62
2020-08-04 13:00:00 26.8 5 Sur 13 Sur 0 1013 -- 69
2020-08-04 12:00:00 23.8 6 Sudoeste 24 Oeste 1 1013.1 -- 86
2020-08-04 11:00:00 24.8 8 Sur 21 Sudeste 0.7 1013.1 -- 77
2020-08-04 10:00:00 26.1 11 Sudeste 26 Sudeste 0 1012.6 -- 75
2020-08-04 09:00:00 24.2 12 Sudeste 17 Sur 0.3 1012.4 -- 86
2020-08-04 08:00:00 23.9 8 Sudeste 18 Sudeste 1.5 1012.1 -- 87
2020-08-04 07:00:00 24.6 7 Sudeste 15 Este 0 1011.8 -- 78
2020-08-04 06:00:00 24.7 10 Sudeste 15 Este 0 1011.4 -- 79
2020-08-04 05:00:00 23.8 2 Norte 11 Norte 0 1011.5 -- 83
2020-08-04 04:00:00 23.6 0 Calma 8 Norte 0 1011.8 -- 83
2020-08-04 03:00:00 24.1 4 Norte 8 Norte 0 1012 -- 82
2020-08-04 02:00:00 24.7 4 Sudeste 13 Sudeste 0 1012.2 -- 80
2020-08-04 01:00:00 25.2 6 Sudeste 15 Sudeste 0 1012.2 -- 78
2020-08-04 00:00:00 25.4 12 Este 18 Este 0 1011.9 -- 78
2020-08-03 23:00:00 25.6 11 Este 18 Este 0 1011.4 -- 77
2020-08-03 22:00:00 25.5 11 Este 18 Este 0 1010.5 -- 76
2020-08-03 21:00:00 25.9 13 Este 24 Este 0 1009.8 -- 75
2020-08-03 20:00:00 26.6 12 Este 22 Este 0 1009.6 -- 72
2020-08-03 19:00:00 27.7 14 Este 26 Este 0 1009.4 -- 67
2020-08-03 18:00:00 28.4 15 Este 30 Este 0 1009.3 -- 65
2020-08-03 17:00:00 28.6 17 Este 32 Este 0 1009.4 -- 66
2020-08-03 16:00:00 28 23 Este 32 Norte 0 1009.7 -- 69
2020-08-03 15:00:00 29.4 22 Nordeste 32 Este 0 1010.2 -- 63
2020-08-03 14:00:00 28.4 21 Este 32 Norte 0 1010.6 -- 67
2020-08-03 13:00:00 29.1 18 Este 30 Este 0 1010.6 -- 66
2020-08-03 12:00:00 27.7 21 Este 32 Este 0 1010.2 -- 71
2020-08-03 11:00:00 26.9 21 Este 30 Norte 0 1010.1 -- 73
2020-08-03 10:00:00 26.9 19 Este 30 Este 0 1010.2 -- 75
2020-08-03 09:00:00 26.5 18 Este 28 Este 0 1010.1 -- 77
2020-08-03 08:00:00 26.1 15 Este 24 Este 0 1010.6 -- 79
2020-08-03 07:00:00 25.9 13 Este 22 Este 0 1010 -- 81
2020-08-03 06:00:00 25.9 13 Este 21 Este 0 1009.4 -- 82
2020-08-03 05:00:00 25.8 12 Este 17 Este 0 1009.7 -- 81
2020-08-03 04:00:00 25.9 9 Este 17 Este 0 1010 -- 81
2020-08-03 03:00:00 26 11 Este 18 Este 0 1010.3 -- 81
2020-08-03 02:00:00 26.2 12 Nordeste 22 Este 0 1010.8 -- 81
2020-08-03 01:00:00 26.3 13 Nordeste 22 Norte 0 1010.7 -- 81
2020-08-03 00:00:00 26.4 12 Este 24 Este 0 1010.6 -- 84
2020-08-02 23:00:00 26.6 12 Este 21 Este 0 1010.8 -- 84
2020-08-02 22:00:00 26.8 12 Este 18 Este 0 1010.5 -- 79
2020-08-02 21:00:00 27 13 Este 26 Este 0 1010.5 -- 81
2020-08-02 20:00:00 27.8 15 Este 26 Este 0 1010.1 -- 79
2020-08-02 19:00:00 28.7 20 Este 28 Este 0 1010.5 -- 75
2020-08-02 18:00:00 29.1 20 Nordeste 28 Este 0 1010.8 -- 75
2020-08-02 17:00:00 29.8 17 Este 28 Este 0 1011.2 -- 72
2020-08-02 16:00:00 29.8 21 Este 30 Este 0 1011.5 -- 72
2020-08-02 15:00:00 30 23 Nordeste 35 Este 0 1012.1 -- 70
2020-08-02 14:00:00 30.3 23 Este 33 Este 0 1012.3 -- 70
2020-08-02 13:00:00 30 23 Este 33 Este 0 1012.4 -- 73
2020-08-02 12:00:00 29.6 24 Este 32 Este 0 1012.6 -- 75
2020-08-02 11:00:00 29.2 19 Este 30 Este 0 1012.2 -- 73
2020-08-02 10:00:00 28.3 20 Este 30 Este 0 1011.8 -- 78
2020-08-02 09:00:00 27.4 18 Nordeste 24 Norte 0 1011.3 -- 83
2020-08-02 08:00:00 25 6 Norte 11 Norte 0 1011.1 -- 92
2020-08-02 07:00:00 24.3 8 Noroeste 11 Noroeste 0 1011 -- 94
2020-08-02 06:00:00 24.5 0 Calma 11 Norte 0 1010.6 -- 94
2020-08-02 05:00:00 25.1 8 Norte 9 Norte 0 1010.5 -- 95
2020-08-02 04:00:00 25.7 5 Norte 9 Noroeste 0 1010.6 -- 93
2020-08-02 03:00:00 25.7 5 Sur 8 Sudoeste 0 1010.5 -- 94
2020-08-02 02:00:00 26.1 4 Sur 9 Sur 0 1011.2 -- 93
2020-08-02 01:00:00 26.2 4 Sudeste 11 Sudeste 0 1011.6 -- 92
2020-08-02 00:00:00 26.8 8 Sudeste 24 Este 0 1011.4 -- 92
2020-08-01 23:00:00 26.1 8 Este 15 Sudoeste 0 1010.8 -- 91
2020-08-01 22:00:00 26.9 9 Sudoeste 22 Sudoeste 0 1010.7 -- 90
2020-08-01 21:00:00 27.3 16 Sudoeste 32 Sudoeste 0 1010.7 -- 89
2020-08-01 20:00:00 27.9 22 Sudoeste 30 Sudoeste 0 1010.7 -- 87
2020-08-01 19:00:00 28.4 19 Sudoeste 26 Sudoeste 0 1010.6 -- 83
2020-08-01 18:00:00 28.9 16 Sudoeste 22 Sudoeste 0 1011.1 -- 80
2020-08-01 17:00:00 29.1 17 Sudoeste 30 Sudoeste 0 1011.8 -- 77
2020-08-01 16:00:00 29.7 17 Sudoeste 26 Sudoeste 0 1012.3 -- 75
2020-08-01 15:00:00 29.8 15 Sudoeste 26 Sur 0 1012.5 -- 75
2020-08-01 14:00:00 29.4 18 Sudoeste 32 Sudoeste 0 1013.3 -- 75
2020-08-01 13:00:00 29.4 19 Sudoeste 30 Sudoeste 0 1013.7 -- 75
2020-08-01 12:00:00 29.7 9 Sur 18 Este 0 1013.5 -- 72
2020-08-01 11:00:00 28.7 15 Este 24 Este 0 1013.3 -- 76
2020-08-01 10:00:00 27.4 9 Sur 18 Sur 0 1013.2 -- 82
2020-08-01 09:00:00 27.1 7 Oeste 11 Sudoeste 0 1013.6 -- 82
2020-08-01 08:00:00 25.2 5 Norte 11 Norte 0 1013.1 -- 82
2020-08-01 07:00:00 23.3 5 Norte 13 Norte 0 1012.4 -- 76
2020-08-01 06:00:00 22.6 6 Norte 9 Nordeste 0 1012.2 -- 80
2020-08-01 05:00:00 22 8 Nordeste 13 Nordeste 0 1011.8 -- 83
2020-08-01 04:00:00 23.1 4 Nordeste 9 Noroeste 0 1012.1 -- 87
2020-08-01 03:00:00 23.6 5 Noroeste 11 Noroeste 0 1012.4 -- 88
2020-08-01 02:00:00 24.3 9 Noroeste 11 Noroeste 0 1013.1 -- 85
2020-08-01 01:00:00 24.1 0 Calma 13 Norte 0 1012.8 -- 76
2020-08-01 00:00:00 25.1 5 Norte 9 Norte 0 1012.7 -- 69
2020-07-31 23:00:00 25.9 0 Calma 11 Noroeste 0 1013 -- 69
2020-07-31 22:00:00 26.8 6 Este 11 Norte 0 1012.4 -- 87
2020-07-31 21:00:00 27.8 5 Este 13 Nordeste 0 1011.9 -- 80
2020-07-31 20:00:00 28.8 9 Este 17 Este 0 1011.5 -- 76
2020-07-31 19:00:00 30.4 12 Este 17 Este 0 1011.5 -- 70
2020-07-31 18:00:00 30 10 Este 22 Este 0 1012 -- 70
2020-07-31 17:00:00 30.2 14 Este 21 Este 0 1012.1 -- 70
2020-07-31 16:00:00 30.4 14 Este 24 Este 0 1012.6 -- 68
2020-07-31 15:00:00 30.4 17 Este 24 Este 0 1012.8 -- 68
2020-07-31 14:00:00 30.7 15 Este 22 Este 0 1013 -- 66
2020-07-31 13:00:00 30.2 13 Este 22 Este 0 1013.4 -- 72
2020-07-31 12:00:00 29.2 14 Este 22 Este 0 1013.2 -- 76
2020-07-31 11:00:00 29.3 12 Este 17 Este 0 1013.1 -- 73
2020-07-31 10:00:00 28.4 10 Este 21 Nordeste 0 1012.6 -- 78
2020-07-31 09:00:00 27.2 10 Nordeste 18 Nordeste 0 1012.3 -- 85
2020-07-31 08:00:00 24.9 8 Norte 13 Norte 0 1012 -- 86
2020-07-31 07:00:00 22.6 12 Norte 13 Norte 0 1012.2 -- 85
2020-07-31 06:00:00 23 7 Nordeste 17 Nordeste 0 1011.8 -- 89
2020-07-31 05:00:00 24.3 8 Norte 18 Este 0 1011.9 -- 89
2020-07-31 04:00:00 26 15 Nordeste 28 Nordeste 0 1011.7 -- 92
2020-07-31 03:00:00 25.9 16 Nordeste 26 Nordeste 0 1011.8 -- 92
2020-07-31 02:00:00 25.5 11 Nordeste 21 Nordeste 0 1012.3 -- 91
2020-07-31 01:00:00 25.5 14 Nordeste 18 Nordeste 0 1012.8 -- 89
2020-07-31 00:00:00 25.8 8 Este 11 Este 0 1013.5 -- 87
2020-07-30 23:00:00 26.8 6 Noroeste 9 Norte 0 1013.6 -- 87
2020-07-30 22:00:00 26.9 6 Este 18 Nordeste 0 1012.5 -- 88
2020-07-30 21:00:00 27.1 11 Este 26 Nordeste 0 1011.6 -- 87
2020-07-30 20:00:00 27.7 20 Este 32 Este 0 1011.2 -- 83
2020-07-30 19:00:00 28.6 22 Este 32 Este 0 1011.1 -- 77
2020-07-30 18:00:00 29.5 21 Este 30 Este 0 1011.5 -- 72
2020-07-30 17:00:00 30.1 17 Este 30 Este 0 1012.2 -- 67
2020-07-30 16:00:00 30.9 25 Nordeste 35 Este 0 1012.1 -- 60
2020-07-30 15:00:00 31.7 21 Este 32 Este 0 1012.6 -- 55
2020-07-30 14:00:00 31.6 20 Nordeste 30 Este 0 1013.2 -- 51
2020-07-30 13:00:00 31.4 18 Nordeste 26 Nordeste 0 1013.7 -- 52
2020-07-30 12:00:00 30.6 17 Este 26 Este 0 1013.8 -- 56
2020-07-30 11:00:00 30.3 15 Este 28 Este 0 1013.5 -- 56
2020-07-30 10:00:00 29.5 18 Nordeste 26 Este 0 1012.9 -- 57
2020-07-30 09:00:00 28.9 12 Nordeste 21 Nordeste 0 1012.7 -- 54
2020-07-30 08:00:00 25.3 6 Norte 11 Norte 0 1012.5 -- 68
2020-07-30 07:00:00 24.7 8 Norte 11 Nordeste 0 1012 -- 67
2020-07-30 06:00:00 25.1 8 Nordeste 21 Nordeste 0 1011.8 -- 69
2020-07-30 05:00:00 25.4 11 Nordeste 17 Nordeste 0 1011.7 -- 71
2020-07-30 04:00:00 26 12 Nordeste 18 Norte 0 1011.6 -- 70
2020-07-30 03:00:00 25.8 14 Nordeste 21 Nordeste 0 1011.8 -- 73
2020-07-30 02:00:00 25.6 10 Nordeste 15 Nordeste 0 1012.6 -- 73
2020-07-30 01:00:00 25.5 11 Nordeste 15 Nordeste 0 1012.8 -- 73
2020-07-30 00:00:00 26.4 10 Nordeste 18 Este 0 1012.9 -- 71
2020-07-29 23:00:00 26.8 13 Nordeste 26 Este 0 1012.7 -- 74
2020-07-29 22:00:00 27.6 19 Nordeste 30 Este 0 1011.9 -- 68
2020-07-29 21:00:00 28.1 18 Este 30 Este 0 1011.5 -- 67
2020-07-29 20:00:00 29.2 19 Este 30 Este 0 1011.3 -- 60
2020-07-29 19:00:00 30 19 Nordeste 30 Nordeste 0 1011.4 -- 56
2020-07-29 18:00:00 30.2 19 Nordeste 30 Nordeste 0 1011.8 -- 60
2020-07-29 17:00:00 30.3 20 Este 32 Este 0 1012.2 -- 59
2020-07-29 16:00:00 30.8 18 Este 30 Este 0 1012.6 -- 57
2020-07-29 15:00:00 30.7 17 Nordeste 26 Este 0 1012.9 -- 57
2020-07-29 14:00:00 30.7 17 Este 26 Este 0 1013 -- 57
2020-07-29 13:00:00 30.8 16 Este 28 Este 0 1013.1 -- 57
2020-07-29 12:00:00 29.4 18 Este 30 Nordeste 0 1013.2 -- 62
2020-07-29 11:00:00 29.6 19 Este 32 Este 0 1012.8 -- 60
2020-07-29 10:00:00 29.1 17 Nordeste 30 Nordeste 0 1012.6 -- 63
2020-07-29 09:00:00 28.5 15 Nordeste 28 Este 0 1012.1 -- 63
2020-07-29 08:00:00 26.1 12 Nordeste 18 Nordeste 0 1011.2 -- 70
2020-07-29 07:00:00 24.9 16 Nordeste 24 Este 0 1010.8 -- 77
2020-07-29 06:00:00 24.5 17 Nordeste 22 Nordeste 0 1010.6 -- 78
2020-07-29 05:00:00 24.7 14 Nordeste 21 Nordeste 0 1010.7 -- 78
2020-07-29 04:00:00 24.6 15 Nordeste 21 Nordeste 0 1011.2 -- 86
2020-07-29 03:00:00 25.2 13 Nordeste 28 Nordeste 0 1011.5 -- 82
2020-07-29 02:00:00 26 17 Nordeste 26 Este 0 1011.6 -- 83
2020-07-29 01:00:00 25.5 12 Nordeste 17 Nordeste 0 1011.9 1.1 82
2020-07-29 00:00:00 26.1 11 Nordeste 21 Nordeste 0 1012 -- 80
2020-07-28 23:00:00 26.7 16 Nordeste 28 Este 0 1011.6 -- 79
2020-07-28 22:00:00 26.9 18 Nordeste 26 Este 0 1010.8 -- 76
2020-07-28 21:00:00 27.2 14 Nordeste 24 Este 0 1011 -- 75
2020-07-28 20:00:00 28.3 16 Este 24 Nordeste 0 1010.9 -- 71
2020-07-28 19:00:00 29.2 15 Este 24 Este 0 1011.3 -- 68
2020-07-28 18:00:00 30.2 18 Este 28 Este 0 1011.3 -- 62
2020-07-28 17:00:00 29.3 16 Nordeste 28 Este 0 1011.7 -- 64
2020-07-28 16:00:00 30.6 18 Este 26 Este 0 1011.7 -- 62
2020-07-28 15:00:00 30.5 14 Este 26 Nordeste 0 1012.4 -- 63
2020-07-28 14:00:00 30.6 16 Este 26 Este 0 1012.2 -- 64
2020-07-28 13:00:00 31 18 Este 28 Norte 0 1012.3 -- 61
2020-07-28 12:00:00 30.4 19 Nordeste 30 Este 0 1012.1 -- 59
2020-07-28 11:00:00 29.9 21 Este 35 Este 0 1011.9 -- 63
2020-07-28 10:00:00 29.6 21 Este 35 Este 0 1011.9 -- 62
2020-07-28 09:00:00 28.6 17 Nordeste 30 Este 0 1011.7 -- 60
2020-07-28 08:00:00 25.9 17 Nordeste 24 Nordeste 0 1011.8 -- 74
2020-07-28 07:00:00 25.2 11 Nordeste 24 Este 0 1011.6 -- 71
2020-07-28 06:00:00 23.1 4 Nordeste 8 Norte 0 1011.9 -- 69
2020-07-28 05:00:00 22.7 7 Norte 11 Nordeste 0 1012.1 -- 72
2020-07-28 04:00:00 22.7 5 Norte 8 Nordeste 0 1012.4 -- 73
2020-07-28 03:00:00 24.1 5 Noroeste 13 Noroeste 0 1012.6 -- 69
2020-07-28 02:00:00 25.1 7 Norte 13 Norte 0 1013 -- 69
2020-07-28 01:00:00 25.1 10 Norte 13 Norte 0 1013.3 -- 73
2020-07-28 00:00:00 25.4 8 Norte 11 Norte 0 1013.2 -- 79
2020-07-27 23:00:00 25.3 9 Nordeste 13 Este 0 1013.1 -- 83
2020-07-27 22:00:00 26.4 8 Este 15 Este 0 1012.8 -- 79
2020-07-27 21:00:00 27.1 9 Nordeste 15 Este 0 1012.7 -- 74
2020-07-27 20:00:00 28.3 10 Nordeste 18 Este 0 1012.6 -- 69
2020-07-27 19:00:00 29.1 11 Este 21 Este 0 1012.6 -- 64
2020-07-27 18:00:00 29.3 13 Este 26 Norte 0 1013.1 -- 65
2020-07-27 17:00:00 29.9 17 Este 24 Este 0 1013.4 -- 65
2020-07-27 16:00:00 29.9 13 Este 24 Este 0 1014 -- 64
2020-07-27 15:00:00 29.8 15 Este 26 Este 0 1014.3 -- 62
2020-07-27 14:00:00 29.9 19 Nordeste 32 Este 0 1014.7 -- 61
2020-07-27 13:00:00 29.9 17 Este 30 Este 0 1015 -- 60
2020-07-27 12:00:00 29.5 23 Este 32 Este 0 1015.1 -- 57
2020-07-27 09:00:00 27.6 14 Nordeste 21 Nordeste 0 1014.3 0.5 63
2020-07-27 08:00:00 25 12 Nordeste 17 Nordeste 0 1013.8 -0.3 81
2020-07-27 07:00:00 23.2 13 Nordeste 17 Nordeste 0 1013.6 -0.2 87
2020-07-27 06:00:00 23.3 9 Norte 13 Norte 0 1013.8 0 88
2020-07-27 05:00:00 23.6 9 Norte 15 Nordeste 0 1014.1 0 85
2020-07-27 04:00:00 24.5 12 Nordeste 17 Norte 0 1013.8 -0.5 82
2020-07-27 03:00:00 24.2 13 Nordeste 15 Nordeste 0 1013.8 -0.6 82
2020-07-27 02:00:00 24.2 8 Norte 11 Norte 0 1014.1 0.3 80
2020-07-27 01:00:00 24.2 9 Norte 13 Este 0 1014.3 1.2 80
2020-07-27 00:00:00 25.3 8 Nordeste 17 Este 0 1014.4 1.9 80
2020-07-26 23:00:00 25.8 11 Nordeste 18 Este 0 1013.8 1.5 80
2020-07-26 22:00:00 26.1 12 Nordeste 24 Este 0 1013.1 0.7 80
2020-07-26 21:00:00 26.8 16 Este 28 Este 0 1012.5 -0.1 78
2020-07-26 20:00:00 27.9 19 Este 28 Este 0 1012.3 -0.8 73
2020-07-26 19:00:00 28.8 18 Este 28 Este 0 1012.4 -1 65
2020-07-26 18:00:00 29.6 18 Este 28 Este 0 1012.6 -0.9 61
2020-07-26 17:00:00 29.7 15 Este 24 Este 0 1013.1 -0.4 62
2020-07-26 16:00:00 29.7 15 Este 26 Este 0 1013.4 -0.4 63
2020-07-26 15:00:00 29.5 16 Este 28 Norte 0 1013.5 -0.2 65
2020-07-26 14:00:00 29.4 19 Este 28 Este 0 1013.5 0.1 69
2020-07-26 13:00:00 28.9 17 Este 26 Norte 0 1013.8 1 70
2020-07-26 12:00:00 28.5 16 Nordeste 22 Este 0 1013.7 1 72
2020-07-26 11:00:00 28.2 14 Nordeste 22 Este 0 1013.4 1.2 74
2020-07-26 10:00:00 27.5 15 Este 22 Este 0 1012.8 -- 75
2020-07-26 09:00:00 26.7 11 Este 18 Este 0 1012.7 -- 78
2020-07-26 08:00:00 24.9 6 Nordeste 13 Norte 0 1012.2 -- 84
2020-07-26 07:00:00 22.9 10 Nordeste 13 Nordeste 0 1011.7 -- 90
2020-07-26 06:00:00 22.7 10 Norte 13 Norte 0 1011.3 -- 89
2020-07-26 05:00:00 22.7 10 Norte 13 Norte 0 1011.3 -- 89
2020-07-26 04:00:00 22.7 9 Norte 11 Norte 0 1011.3 -- 90
2020-07-26 03:00:00 23.1 9 Norte 11 Norte 0 1011.6 -- 90
2020-07-26 02:00:00 23.5 5 Norte 9 Este 0 1011.8 -- 88
2020-07-26 01:00:00 25 6 Este 13 Este 0 1012.1 -- 86
2020-07-26 00:00:00 25.4 9 Este 15 Este 0 1012.1 -- 82
2020-07-25 23:00:00 25.4 9 Este 17 Este 0 1011.7 -- 84
2020-07-25 22:00:00 25.6 10 Este 21 Sudeste 0 1011.3 -- 85
2020-07-25 21:00:00 26.2 14 Este 21 Este 0 1011 -- 82
2020-07-25 20:00:00 27.2 15 Este 22 Este 0 1011.2 -- 77
2020-07-25 19:00:00 28.1 15 Este 24 Este 0 1011.5 -- 71
2020-07-25 18:00:00 28.7 16 Este 24 Sudeste 0 1011.9 -- 68
2020-07-25 17:00:00 29.2 16 Este 26 Sudeste 0 1012.1 -- 67
2020-07-25 16:00:00 29.3 17 Este 26 Este 0 1012.6 -- 67
2020-07-25 15:00:00 29.5 16 Este 26 Este 0 1013 -- 62
2020-07-25 14:00:00 29.2 14 Este 28 Este 0 1013.3 -- 66
2020-07-25 13:00:00 28.9 14 Este 22 Este 0 1013.5 -- 71
2020-07-25 12:00:00 29 13 Este 21 Sudeste 0 1013.5 -- 69
2020-07-25 11:00:00 28.2 10 Este 18 Este 0 1013.5 -- 69
2020-07-25 10:00:00 27.6 8 Este 17 Este 0 1013.3 -- 71
2020-07-25 09:00:00 26.8 9 Este 13 Este 0 1013 -- 75
2020-07-25 08:00:00 24.8 7 Norte 11 Norte 0 1012.6 -- 83
2020-07-25 07:00:00 22.5 5 Nordeste 11 Norte 0 1012.3 -- 87
2020-07-25 06:00:00 22.7 10 Norte 13 Norte 0 1011.9 -- 84
2020-07-25 05:00:00 22.7 10 Norte 13 Norte 0 1012.1 -- 81
2020-07-25 04:00:00 22.6 9 Norte 11 Norte 0 1012.1 -- 79
2020-07-25 03:00:00 23.2 9 Norte 11 Norte 0 1012.6 -- 76
2020-07-25 02:00:00 23.4 8 Norte -- -- 0 1012.7 -- 74
2020-07-25 01:00:00 23.7 5 Norte 9 Noroeste 0 1012.9 -- 71
2020-07-25 00:00:00 24 8 Noroeste 13 Noroeste 0 1012.9 -- 71
2020-07-24 23:00:00 24.5 5 Sudoeste 9 Oeste 0 1012.7 -- 73
2020-07-24 22:00:00 25.5 8 Sudoeste 9 Sudoeste 0 1011.9 -- 72
2020-07-24 21:00:00 26.6 6 Sudoeste 15 Sudoeste 0 1011.6 -- 67
2020-07-24 20:00:00 27.7 11 Oeste 18 Sudoeste 0 1011.5 -- 65
2020-07-24 19:00:00 28.1 14 Sudoeste 24 Sudoeste 0 1011.2 -- 63
2020-07-24 18:00:00 28.8 16 Sudoeste 24 Sudoeste 0 1011.6 -- 57
2020-07-24 17:00:00 29.1 16 Sudoeste 26 Sudoeste 0 1011.8 -- 53
2020-07-24 16:00:00 29 18 Sudoeste 26 Sudoeste 0 1012 -- 59
2020-07-24 15:00:00 29.5 15 Sudoeste 24 Sudoeste 0 1012.4 -- 55
2020-07-24 14:00:00 29 18 Sudoeste 26 Sur 0 1012.7 -- 62
2020-07-24 13:00:00 28.6 15 Sudoeste 22 Sudoeste 0 1012.9 -- 68
2020-07-24 12:00:00 30.4 11 Sur 21 Sudoeste 0 1012.6 -- 47
2020-07-24 11:00:00 29.2 12 Este 17 Este 0 1012.4 -- 50
2020-07-24 10:00:00 27.8 10 Este 15 Este 0 1012.3 -- 62
2020-07-24 09:00:00 26.7 5 Este 9 Este 0 1012 -- 65
2020-07-24 08:00:00 23.4 5 Norte 11 Norte 0 1011.5 -- 60
2020-07-24 07:00:00 20.7 8 Norte 11 Norte 0 1011.3 -- 64
2020-07-24 06:00:00 20.5 6 Norte 8 Norte 0 1011 -- 64
2020-07-24 05:00:00 21.6 4 Norte 9 Norte 0 1011 -- 62
2020-07-24 04:00:00 21.7 6 Norte 9 Norte 0 1011.1 -- 68
2020-07-24 03:00:00 22.1 2 Oeste 13 Noroeste 0 1011.4 -- 77
2020-07-24 02:00:00 23.1 6 Noroeste 9 Noroeste 0 1012.1 -- 78
2020-07-24 01:00:00 23.7 5 Noroeste 15 Noroeste 0 1012.3 -- 77
2020-07-24 00:00:00 24.5 8 Oeste 13 Oeste 0 1012.1 -- 74
2020-07-23 23:00:00 25 3 Oeste 8 Sur 0 1012.1 -- 74
2020-07-23 22:00:00 25.6 0 Calma 8 Sudeste 0 1011.8 -- 71
2020-07-23 21:00:00 27.2 4 Este 13 Sudeste 0 1011.5 -- 66
2020-07-23 20:00:00 28.3 7 Sudeste 15 Sudeste 0 1011.5 -- 61
2020-07-23 19:00:00 28.6 7 Este 18 Este 0 1011.5 -- 57
2020-07-23 18:00:00 30.2 9 Nordeste 18 Este 0 1011.8 -- 38
2020-07-23 17:00:00 30.8 12 Este 22 Sudeste 0 1012 -- 39
2020-07-23 16:00:00 30.8 9 Sur 22 Sudoeste 0 1012.5 -- 46
2020-07-23 15:00:00 30.1 10 Sudoeste 21 Sudoeste 0 1012.8 -- 48
2020-07-23 14:00:00 30.1 9 Sur 24 Sudoeste 0 1013.2 -- 52
2020-07-23 13:00:00 30.5 13 Sudoeste 24 Este 0 1013.4 -- 53
2020-07-23 12:00:00 29.5 16 Este 22 Este 0 1013.5 -- 54
2020-07-23 11:00:00 29.9 15 Este 21 Norte 0 1013.4 -- 43
2020-07-23 10:00:00 28.6 12 Este 18 Este 0 1013.5 -- 52
2020-07-23 09:00:00 27.6 8 Nordeste 13 Norte 0 1013.4 -- 56
2020-07-23 08:00:00 24.3 0 Calma 9 Nordeste 0 1013.2 -- 67
2020-07-23 07:00:00 22.2 9 Nordeste 13 Nordeste 0 1013.1 -- 75
2020-07-23 06:00:00 23.3 12 Nordeste 21 Nordeste 0 1012.7 -- 75
2020-07-23 05:00:00 24.2 14 Nordeste 21 Nordeste 0 1012.7 -- 74
2020-07-23 04:00:00 24.2 15 Nordeste 22 Nordeste 0 1013.1 -- 79
2020-07-23 03:00:00 23.5 13 Nordeste 18 Nordeste 0 1013.6 -- 76
2020-07-23 02:00:00 23.6 13 Nordeste 17 Nordeste 0 1014.2 -- 76
2020-07-23 01:00:00 24.4 9 Nordeste 15 Nordeste 0 1014.9 -- 70
2020-07-23 00:00:00 25.1 10 Norte 21 Nordeste 0 1014.8 -- 69
2020-07-22 23:00:00 25.6 12 Nordeste 26 Este 0 1014.2 -- 71
2020-07-22 22:00:00 26.1 17 Nordeste 26 Este 0 1013.7 -- 71
2020-07-22 21:00:00 26.5 18 Este 30 Nordeste 0 1013.4 -- 70
2020-07-22 20:00:00 27.5 15 Nordeste 30 Este 0 1013.7 -- 63
2020-07-22 19:00:00 28.6 19 Este 33 Nordeste 0 1013.9 -- 58
2020-07-22 18:00:00 29.4 24 Este 35 Este 0 1014.3 -- 53
2020-07-22 17:00:00 30 26 Este 48 Nordeste 0 1014.7 -- 50
2020-07-22 16:00:00 29.5 38 Nordeste 54 Este 0 1013.5 -- 55
2020-07-22 15:00:00 29.7 34 Nordeste 48 Este 0 1014.4 -- 55
2020-07-22 14:00:00 28.7 34 Este 46 Este 0 1014.6 -- 63
2020-07-22 13:00:00 29.3 18 Este 33 Este 0 1016.8 -- 60
2020-07-22 12:00:00 28.9 23 Este 37 Nordeste 0 1016.2 -- 61
2020-07-22 11:00:00 28.4 26 Este 37 Este 0 1015.8 -- 60
2020-07-22 10:00:00 28 21 Nordeste 33 Nordeste 0 1015.7 -- 61
2020-07-22 09:00:00 26.1 18 Nordeste 52 Este 0 1015.7 -- 70
2020-07-22 08:00:00 25.1 26 Nordeste 35 Este 0 1013.7 -- 72
2020-07-22 07:00:00 24 17 Nordeste 24 Nordeste 0 1015.1 -- 77
2020-07-22 06:00:00 24.1 18 Nordeste 26 Nordeste 0 1014.8 -- 79
2020-07-22 05:00:00 24.2 14 Nordeste 22 Nordeste 0 1015 -- 80
2020-07-22 04:00:00 24 10 Nordeste 24 Este 0 1015.2 -- 82
2020-07-22 03:00:00 24.9 18 Nordeste 37 Este 0 1015 -- 84
2020-07-22 02:00:00 25 25 Nordeste 41 Este 0 1014.9 -- 84
2020-07-22 01:00:00 25.1 20 Nordeste 32 Este 0 1015.9 -- 84
2020-07-22 00:00:00 25.2 16 Nordeste 26 Nordeste 0 1016 -- 82
2020-07-21 23:00:00 25.5 17 Este 28 Este 0 1015.9 -- 80
2020-07-21 22:00:00 25.8 20 Este 30 Este 0 1015.2 -- 77
2020-07-21 21:00:00 26.2 21 Este 30 Nordeste 0 1014.8 -- 76
2020-07-21 20:00:00 27.1 22 Este 32 Este 0 1014.4 -- 70
2020-07-21 19:00:00 28 21 Este 30 Este 0 1014.9 -- 68
2020-07-21 18:00:00 28.3 22 Este 32 Este 0 1015.5 -- 67
2020-07-21 17:00:00 28.7 24 Este 33 Nordeste 0 1015.7 -- 66
2020-07-21 16:00:00 28.9 23 Este 33 Este 0 1016.1 -- 65
2020-07-21 15:00:00 28.5 22 Este 33 Este 0 1016.5 -- 70
2020-07-21 14:00:00 28.3 22 Este 39 Este 0 1016.7 -- 70
2020-07-21 13:00:00 27.9 27 Este 39 Este 0 1016.7 -- 71
2020-07-21 12:00:00 27.7 27 Este 41 Este 0 1016.5 -- 70
2020-07-21 11:00:00 27.2 21 Nordeste 33 Este 0 1016.6 -- 72
2020-07-21 10:00:00 26.6 23 Nordeste 32 Este 0 1016.1 -- 73
2020-07-21 09:00:00 25.8 20 Nordeste 32 Nordeste 0 1015.9 -- 76
2020-07-21 08:00:00 23.7 14 Nordeste 21 Nordeste 0 1015.6 -- 86
2020-07-21 07:00:00 22.7 12 Nordeste 15 Nordeste 0 1015.1 -- 89
2020-07-21 06:00:00 23.2 10 Nordeste 15 Nordeste 0 1015.2 -- 88
2020-07-21 05:00:00 23.1 11 Nordeste 21 Este 0 1014.8 -- 88
2020-07-21 04:00:00 24.1 12 Este 18 Este 0 1014.9 -- 85
2020-07-21 03:00:00 24.2 12 Nordeste 21 Este 0 1015.3 -- 85
2020-07-21 02:00:00 24.3 14 Nordeste 18 Norte 0 1015.7 -- 83
2020-07-21 01:00:00 24.6 12 Este 26 Este 0 1016.1 -- 84
2020-07-21 00:00:00 24.6 16 Este 24 Este 0 1015.5 -- 85
2020-07-20 23:00:00 24.7 14 Este 22 Este 0 1015.5 -- 85
2020-07-20 22:00:00 24.9 15 Nordeste 24 Este 0 1015.1 -- 82
2020-07-20 21:00:00 25.2 16 Nordeste 28 Este 0 1014.6 -- 79
2020-07-20 20:00:00 26.1 20 Nordeste 30 Este 0 1014.2 -- 75
2020-07-20 19:00:00 26.7 20 Este 30 Este 0 1014 -- 73
2020-07-20 18:00:00 27.6 19 Este 30 Este 0 1014.4 -- 69
2020-07-20 17:00:00 27.1 17 Este 28 Este 0 1014.8 -- 70
2020-07-20 16:00:00 28 18 Este 28 Este 0 1015 -- 66
2020-07-20 15:00:00 28.3 15 Este 24 Este 0 1014.9 -- 64
2020-07-20 14:00:00 28.2 15 Este 24 Este 0 1015.2 -- 65
2020-07-20 13:00:00 28.1 14 Este 22 Este 0 1015.4 -- 66
2020-07-20 12:00:00 27.2 12 Este 21 Este 0 1015.5 -- 70
2020-07-20 11:00:00 26.7 12 Este 18 Este 0 1015.1 -- 70
2020-07-20 10:00:00 27.2 11 Sudeste 18 Sudeste 0 1014.8 -- 65
2020-07-20 09:00:00 25.7 9 Sur 13 Sur 0 1014.4 -- 74
2020-07-20 08:00:00 23.6 4 Norte 8 Norte 0 1014 -- 82
2020-07-20 07:00:00 22.9 4 Sudeste 11 Sudeste 0 1013.6 -- 85
2020-07-20 06:00:00 23.9 8 Este 18 Este 0 1013.1 -- 81
2020-07-20 05:00:00 24.1 12 Este 18 Este 0 1013 -- 79
2020-07-20 04:00:00 24.1 9 Este 18 Este 0 1013 -- 80
2020-07-20 03:00:00 22.8 6 Este 11 Este 0 1013.4 -- 84
2020-07-20 02:00:00 22.7 7 Sudeste 9 Sudeste 0 1013.8 -- 86
2020-07-20 01:00:00 23.5 3 Sudoeste 15 Sur 0 1014.2 -- 83
2020-07-20 00:00:00 23.6 7 Sur 11 Sur 0 1014.2 -- 81
2020-07-19 23:00:00 24.2 6 Sudeste 13 Sudeste 0 1013.9 -- 79
2020-07-19 22:00:00 24.7 6 Sudeste 17 Sur 0 1013.6 -- 75
2020-07-19 21:00:00 25.7 10 Sur 18 Sur 0 1013.1 -- 72
2020-07-19 20:00:00 26.9 10 Sudeste 28 Sudeste 0 1013 -- 67
2020-07-19 19:00:00 28 15 Sur 22 Sur 0 1012.9 -- 63
2020-07-19 18:00:00 28.7 14 Sur 30 Sur 0 1013.6 -- 60
2020-07-19 17:00:00 29.1 14 Sur 24 Sur 0 1013.9 -- 54
2020-07-19 16:00:00 29.2 14 Sur 26 Sur 0 1014.2 -- 57
2020-07-19 15:00:00 28.8 15 Sur 26 Sudoeste 0 1014.4 -- 57
2020-07-19 14:00:00 28.5 17 Sudoeste 26 Sudoeste 0 1014.8 -- 57
2020-07-19 13:00:00 28 16 Sudoeste 24 Sudoeste 0 1015 -- 58
2020-07-19 12:00:00 28.4 13 Sur 21 Sur 0 1014.8 0.9 61
2020-07-19 11:00:00 27.2 13 Este 22 Sudeste 0 1014.5 0.8 65
2020-07-19 10:00:00 25.9 11 Este 18 Este 0 1014.3 0.7 75
2020-07-19 09:00:00 25 4 Sudeste 8 Sur 0 1013.9 0.3 76
2020-07-19 08:00:00 22 4 Norte 11 Noroeste 0 1013.7 -- 86
2020-07-19 07:00:00 19.7 4 Norte 9 Norte 0 1013.6 -- 92
2020-07-19 06:00:00 19.6 2 Noroeste 8 Noroeste 0 1013.6 -- 93
2020-07-19 05:00:00 20 2 Noroeste 9 Noroeste 0 1013.6 -- 91
2020-07-19 04:00:00 20.2 4 Norte 9 Norte 0 1013.9 -- 90
2020-07-19 03:00:00 21 6 Noroeste 9 Norte 0 1014.1 -- 87
2020-07-19 02:00:00 21.6 5 Norte 11 Sur 0 1014.5 -- 84
2020-07-19 01:00:00 23.2 8 Sur 13 Sudoeste 0 1014.6 -- 82
2020-07-19 00:00:00 23.5 7 Sur 17 Sur 0 1014.5 -- 80
2020-07-18 23:00:00 23.7 8 Sudeste 17 Sur 0 1014.1 -- 77
2020-07-18 22:00:00 24.3 8 Sur 17 Sur 0 1013.4 -- 71
2020-07-18 21:00:00 25.3 11 Sur 21 Este 0 1013 -- 66
2020-07-18 20:00:00 26.6 11 Sur 24 Sudeste 0 1012.6 -- 65
2020-07-18 19:00:00 27.6 13 Sudeste 22 Sudoeste 0 1012.5 -- 60
2020-07-18 18:00:00 27.8 14 Sudoeste 24 Sur 0 1013 -- 59
2020-07-18 17:00:00 28.4 13 Sur 26 Sur 0 1013.3 -- 57
2020-07-18 16:00:00 28.2 15 Sur 26 Sur 0 1013.5 -- 56
2020-07-18 15:00:00 27.6 17 Este 28 Este 0 1014 -- 59
2020-07-18 14:00:00 28 14 Sudeste 30 Norte 0 1014.2 -- 59
2020-07-18 13:00:00 27.6 14 Este 26 Este 0 1014.5 -- 60
2020-07-18 12:00:00 27.1 13 Este 22 Norte 0 1014.8 -- 62
2020-07-18 11:00:00 26.7 10 Este 18 Este 0 1014.7 -- 65
2020-07-18 10:00:00 25.9 10 Este 17 Este 0 1014.6 -- 66
2020-07-18 09:00:00 25.6 10 Este 15 Sudeste 0 1014.4 -- 69
2020-07-18 08:00:00 24.5 9 Este 15 Este 0 1014.2 -- 72
2020-07-18 07:00:00 22.9 9 Este 13 Este 0 1013.9 -- 79
2020-07-18 06:00:00 23.1 8 Sudeste 13 Sudeste 0 1014.1 -- 79
2020-07-18 05:00:00 23.2 8 Este 15 Sudeste 0 1014.2 -- 79
2020-07-18 04:00:00 23.2 9 Este 13 Este 0 1014.1 -- 80
2020-07-18 03:00:00 23.2 8 Este 11 Sudeste 0 1014.3 -- 81
2020-07-18 02:00:00 22.9 7 Sudeste 11 Sudeste 0 1014.5 -- 81
2020-07-18 01:00:00 22.9 7 Sudeste 11 Sudeste 0 1014.6 -- 80
2020-07-18 00:00:00 23.3 5 Sudeste 13 Este 0 1014.3 -- 77
2020-07-17 23:00:00 23.8 9 Sudeste 13 Este 0 1014.2 -- 75
2020-07-17 22:00:00 23.9 9 Sudeste 15 Sudeste 0 1013.8 -- 74
2020-07-17 21:00:00 24.7 10 Sudeste 24 Sudeste 0 1013.4 -- 71
2020-07-17 20:00:00 25.8 14 Sudeste 28 Este 0 1013 -- 66
2020-07-17 19:00:00 26.3 13 Sudeste 30 Sudeste 0 1013.2 -- 64
2020-07-17 18:00:00 26 18 Sudeste 28 Sudeste 0 1013.5 -- 66
2020-07-17 17:00:00 26.3 18 Sudeste 33 Sudeste 0 1013.9 -- 65
2020-07-17 16:00:00 27.2 21 Sudeste 32 Sudeste 0 1014.1 -- 60
2020-07-17 15:00:00 27.4 21 Sudeste 37 Sudeste 0 1014.4 -- 61
2020-07-17 14:00:00 28.6 17 Sudeste 30 Sudeste 0 1014.8 -- 58
2020-07-17 13:00:00 27.4 15 Este 26 Este 0 1015.1 -- 61
2020-07-17 12:00:00 27 11 Este 21 Este 0 1015.1 -- 62
2020-07-17 11:00:00 26 10 Este 18 Este 0 1015 -- 66
2020-07-17 10:00:00 26 7 Este 17 Este 0 1015.3 -- 67
2020-07-17 09:00:00 24.9 8 Este 15 Sudeste 0 1015.2 -- 72
2020-07-17 08:00:00 22.8 5 Norte 15 Norte 0 1015 -- 80
2020-07-17 07:00:00 21.2 8 Norte 11 Norte 0 1014.7 -- 85
2020-07-17 06:00:00 21.4 6 Norte 9 Norte 0 1014.7 -- 84
2020-07-17 05:00:00 21.5 4 Norte 9 Norte 0 1014.4 -- 83
2020-07-17 04:00:00 21.5 5 Norte 8 Norte 0 1014.6 -- 83
2020-07-17 03:00:00 21.5 4 Norte 9 Norte 0 1014.9 -- 82
2020-07-17 02:00:00 22.7 6 Sudeste 11 Este 0 1015.3 -- 79
2020-07-17 01:00:00 23.4 8 Sudeste 15 Este 0 1015.5 -- 77
2020-07-17 00:00:00 23.4 8 Sudeste 13 Sudeste 0 1015.4 -- 76
2020-07-16 23:00:00 23.8 8 Sudeste 17 Este 0 1015.4 -- 76
2020-07-16 22:00:00 24.1 9 Este 17 Este 0 1015.2 -- 75
2020-07-16 21:00:00 24.7 12 Este 18 Sudeste 0 1015.2 -- 72
2020-07-16 20:00:00 25.9 13 Este 22 Sudeste 0 1015 -- 68
2020-07-16 19:00:00 26.6 14 Este 26 Sudeste 0 1015.1 -- 65
2020-07-16 18:00:00 27.1 14 Sudeste 28 Este 0 1015.5 -- 62
2020-07-16 17:00:00 27.5 14 Este 28 Este 0 1015.9 -- 60
2020-07-16 16:00:00 27.9 16 Este 30 Norte 0 1016.4 -- 59
2020-07-16 15:00:00 27.7 15 Este 28 Este 0 1016.7 -- 60
2020-07-16 14:00:00 27.8 17 Este 26 Sudeste 0 1017.1 -- 60
2020-07-16 13:00:00 27.4 15 Este 24 Sudeste 0 1017.5 -- 62
2020-07-16 12:00:00 27.2 16 Este 26 Este 0 1017.7 -- 62
2020-07-16 11:00:00 27 17 Este 26 Este 0 1017.2 -- 61
2020-07-16 10:00:00 25.9 15 Este 24 Norte 0 1017 -- 67
2020-07-16 09:00:00 25.4 15 Este 22 Este 0 1016.7 -- 69
2020-07-16 08:00:00 23.4 9 Nordeste 13 Nordeste 0 1016.2 -- 78
2020-07-16 07:00:00 20.8 4 Norte 15 Nordeste 0 1016 -- 85
2020-07-16 06:00:00 21.2 11 Norte 13 Norte 0 1015.9 -- 84
2020-07-16 05:00:00 21.5 8 Norte 11 Norte 0 1015.8 -- 83
2020-07-16 04:00:00 22.2 5 Norte 9 Norte 0 1015.7 -- 80
2020-07-16 03:00:00 23.2 4 Este 9 Sudeste 0 1015.9 -- 77
2020-07-16 02:00:00 23.3 6 Sudeste 15 Sudeste 0 1016 -- 75
2020-07-16 01:00:00 23.9 9 Sudeste 21 Sudeste 0 1016 -- 73
2020-07-16 00:00:00 24.2 9 Sudeste 21 Sudeste 0 1015.9 -- 70
2020-07-15 23:00:00 24.6 13 Sudeste 21 Sudeste 0 1015.6 -- 65
2020-07-15 22:00:00 24.9 11 Este 17 Este 0 1015 -- 65
2020-07-15 21:00:00 25.5 11 Este 21 Sudeste 0 1014.7 -- 64
2020-07-15 20:00:00 26.6 15 Sudeste 24 Norte 0 1014.2 -- 59
2020-07-15 19:00:00 27.3 14 Este 24 Norte 0 1014.4 -- 56
2020-07-15 18:00:00 28 17 Este 26 Este 0 1014.5 -- 52
2020-07-15 17:00:00 29.3 10 Sur 22 Sur 0 1014.9 -- 44
2020-07-15 16:00:00 28.8 12 Sur 24 Norte 0 1014.9 -- 48
2020-07-15 15:00:00 29.6 15 Sudeste 33 Sudeste 0 1015.1 -- 46
2020-07-15 14:00:00 29.2 12 Sur 24 Sudeste 0 1015.4 -- 44
2020-07-15 13:00:00 28.6 14 Sudeste 22 Sudeste 0 1015.5 -- 50
2020-07-15 12:00:00 28 13 Este 21 Este 0 1015.4 -- 52
2020-07-15 11:00:00 27 11 Este 17 Sudeste 0 1015.2 -- 55
2020-07-15 10:00:00 26.4 9 Este 18 Este 0 1015 -- 56
2020-07-15 09:00:00 25.7 8 Este 13 Este 0 1014.6 -- 60
2020-07-15 08:00:00 23.2 6 Nordeste 13 Nordeste 0 1014.2 -- 77
2020-07-15 07:00:00 20.9 9 Norte 9 Norte 0 1013.6 -- 85
2020-07-15 06:00:00 20.3 4 Norte 8 Norte 0 1013.2 -- 83
2020-07-15 05:00:00 20.6 0 Calma 9 Norte 0 1013 -- 80
2020-07-15 04:00:00 20.9 0 Calma 11 Norte 0 1012.9 -- 77
2020-07-15 03:00:00 22.4 7 Norte 11 Norte 0 1013.1 -- 73
2020-07-15 02:00:00 23.9 6 Norte 15 Nordeste 0 1013.5 -- 72
2020-07-15 01:00:00 24.2 11 Nordeste 17 Este 0 1013.1 -- 70
2020-07-15 00:00:00 24.4 8 Nordeste 13 Nordeste 0 1013.2 -- 69
2020-07-14 23:00:00 23.7 7 Nordeste 11 Nordeste 0 1013.3 -- 72
2020-07-14 22:00:00 24.5 5 Este 11 Nordeste 0 1013.3 -- 66
2020-07-14 21:00:00 25.4 7 Este 21 Este 0 1013 -- 63
2020-07-14 20:00:00 26.1 14 Este 21 Este 0 1012.1 -- 62
2020-07-14 19:00:00 26.9 13 Este 21 Este 0 1012.3 -- 58
2020-07-14 18:00:00 27.2 11 Este 18 Este 0 1012.3 -- 55
2020-07-14 17:00:00 26.9 10 Este 22 Este 0 1012.7 -- 55
2020-07-14 16:00:00 26.8 10 Este 22 Este 0 1012.9 -- 52
2020-07-14 15:00:00 26.4 12 Este 18 Este 0 1013.5 -- 58
2020-07-14 14:00:00 27 8 Este 17 Sudeste 0 1014.4 -- 54
2020-07-14 13:00:00 26.6 13 Este 26 Este 0 1014.7 -- 59
2020-07-14 12:00:00 24.4 15 Este 26 Este 0.3 1014.5 -- 69
2020-07-14 11:00:00 24.4 14 Sudeste 21 Sudeste 0.1 1014.5 -- 70
2020-07-14 10:00:00 24.5 11 Nordeste 18 Norte 0 1014.8 -- 68
2020-07-14 09:00:00 24.1 5 Nordeste 9 Nordeste 0 1014.3 -- 84
2020-07-14 08:00:00 23.6 2 Este 5 Sur 0 1014 -- 77
2020-07-14 07:00:00 22.2 5 Noroeste 9 Noroeste 0 1014.1 -- 80
2020-07-14 06:00:00 21.6 4 Noroeste 8 Norte 0 1014.1 -- 79
2020-07-14 05:00:00 21.7 5 Norte 8 Norte 0 1014 -- 76
2020-07-14 04:00:00 21.7 3 Norte 8 Noroeste 0 1014.3 -- 71
2020-07-14 03:00:00 22.4 2 Nordeste 8 Noroeste 0 1014.7 -- 69
2020-07-14 02:00:00 23.1 4 Norte 9 Norte 0 1015.1 -- 68
2020-07-14 01:00:00 23.7 7 Nordeste 11 Norte 0 1015 -- 73
2020-07-14 00:00:00 24.1 10 Nordeste 15 Nordeste 0 1015 -- 72
2020-07-13 23:00:00 25.2 12 Nordeste 17 Nordeste 0 1015 -- 65
2020-07-13 22:00:00 25.6 9 Este 18 Nordeste 0 1014.3 0.8 71
2020-07-13 21:00:00 27.6 12 Nordeste 21 Nordeste 0 1013.9 0.3 54
2020-07-13 20:00:00 28.1 8 Sudeste 26 Este 0 1013.8 -0.3 59
2020-07-13 19:00:00 29 19 Este 32 Este 0 1013.5 -1 57
2020-07-13 18:00:00 29.2 22 Este 39 Este 0 1013.6 -1.5 56
2020-07-13 17:00:00 29.3 27 Este 39 Este 0 1014.1 -1.4 49
2020-07-13 16:00:00 28.8 25 Nordeste 39 Este 0 1014.5 -1.3 64
2020-07-13 15:00:00 28.9 27 Este 41 Este 0 1015.1 -0.9 67
2020-07-13 14:00:00 28.5 26 Este 35 Este 0 1015.5 0 68
2020-07-13 13:00:00 28.8 23 Este 32 Este 0 1015.8 0.5 64
2020-07-13 12:00:00 29 21 Este 30 Este 0 1016 0.8 65
2020-07-13 11:00:00 30.8 17 Nordeste 35 Nordeste 0 1015.5 0.4 45
2020-07-13 10:00:00 29.5 22 Nordeste 33 Nordeste 0 1015.3 0.4 47
2020-07-13 09:00:00 27.5 18 Nordeste 30 Nordeste 0 1015.2 0.5 55
2020-07-13 08:00:00 25.9 15 Norte 22 Nordeste 0 1015.1 0.6 53
2020-07-13 07:00:00 22.6 11 Norte 15 Norte 0 1014.9 -- 73
2020-07-13 06:00:00 22.2 4 Nordeste 13 Norte 0 1014.7 0.4 73
2020-07-13 05:00:00 23.3 6 Noroeste 15 Norte 0 1014.5 -1 68
2020-07-13 04:00:00 24.2 10 Norte 22 Nordeste 0 1013.9 -1.4 66
2020-07-13 03:00:00 24.7 11 Este 30 Nordeste 0 1014.3 -1.2 67
2020-07-13 02:00:00 25.8 13 Este 30 Este 0 1015.5 -1.4 66
2020-07-13 01:00:00 25.6 17 Este 28 Este 0 1015.3 -0.5 71
2020-07-13 00:00:00 25.2 19 Nordeste 28 Norte 0 1015.5 -1 78
2020-07-12 23:00:00 25.6 12 Este 30 Nordeste 0 1016.9 0.4 69
2020-07-12 22:00:00 25.8 21 Nordeste 37 Este 0 1015.8 -0.7 72
2020-07-12 21:00:00 26.5 16 Nordeste 35 Norte 0 1016.5 -0.4 62
2020-07-12 20:00:00 27.4 28 Norte 39 Nordeste 0 1016.5 0 60
2020-07-12 19:00:00 28.6 18 Este 26 Este 0 1016.5 0.2 54
2020-07-12 18:00:00 27.8 15 Este 24 Nordeste 0 1016.9 0.9 63
2020-07-12 17:00:00 28.2 16 Este 28 Este 0 1016.5 0.6 62
2020-07-12 16:00:00 28.2 15 Nordeste 30 Este 0 1016.3 -0.2 64
2020-07-12 15:00:00 28.2 21 Este 32 Nordeste 0 1016 -- 66
2020-07-12 14:00:00 27.2 17 Este 28 Este 0 1015.9 -0.6 69
2020-07-12 13:00:00 26.8 13 Este 42 Este 0 1016.5 -- 69
2020-07-12 12:00:00 26.5 22 Este 33 Este 0 1014.9 -- 66
2020-07-12 11:00:00 26.6 11 Este 17 Este 0 1016.5 -- 62
2020-07-12 10:00:00 26.4 9 Este 15 Este 0 1017.1 1.3 68
2020-07-12 09:00:00 26.4 3 Este 11 Norte 0 1017.2 -- 66
2020-07-12 08:00:00 23.9 6 Noroeste 11 Noroeste 0 1017 -- 79
2020-07-12 07:00:00 22 4 Noroeste 13 Norte 0 1015.8 -- 86
2020-07-12 06:00:00 22.7 9 Norte 18 Este 0 1015 -- 84
2020-07-12 05:00:00 23.1 13 Nordeste 22 Este 0 1014.2 -- 83
2020-07-12 04:00:00 24.2 14 Este 30 Nordeste 0 1014.8 -- 78
2020-07-12 03:00:00 24.3 17 Este 30 Este 0 1014.4 -- 82
2020-07-12 02:00:00 23.7 13 Nordeste 24 Nordeste 0 1014.7 -- 85
2020-07-12 01:00:00 24.7 18 Nordeste 26 Este 0 1015.3 -- 80
2020-07-12 00:00:00 24.7 10 Este 18 Este 0 1015.9 -- 78
2020-07-11 23:00:00 24.9 12 Este 18 Este 0 1015.5 -- 80
2020-07-11 22:00:00 25.2 12 Este 21 Este 0 1015.1 -- 79
2020-07-11 21:00:00 25.8 14 Este 24 Este 0 1014.7 -- 77
2020-07-11 20:00:00 26.8 14 Este 28 Este 0 1014.5 -- 74
2020-07-11 19:00:00 27.6 21 Este 32 Este 0 1014.3 -0.4 71
2020-07-11 18:00:00 28.2 21 Este 32 Este 0 1014.5 -- 67
2020-07-11 17:00:00 28.5 24 Este 33 Este 0 1014.6 -- 64
2020-07-11 16:00:00 29.2 22 Nordeste -- -- -- 1014.7 -- 61
2020-07-11 15:00:00 29.4 22 Este 33 Este 0 1015 -- 59
2020-07-11 14:00:00 28.6 19 Este 30 Este 0 1015.2 -- 65
2020-07-11 13:00:00 28.4 17 Este 30 Norte 0 1015.2 -- 64
2020-07-11 12:00:00 28.4 18 Nordeste 30 Nordeste 0 1014.7 -- 63
2020-07-11 11:00:00 27.8 20 Este 28 Nordeste 0 1014.2 -- 66
2020-07-11 10:00:00 27.5 17 Este 30 Este 0 1013.7 -- 71
2020-07-11 09:00:00 26.6 19 Este 28 Este 0 1013.2 -- 75
2020-07-11 08:00:00 26.2 14 Nordeste 21 Nordeste 0 1012.4 -- 65
2020-07-11 07:00:00 23.9 8 Este 22 Nordeste 0 1011.9 -- 63
2020-07-11 06:00:00 25.3 14 Nordeste 24 Nordeste 0 1010.9 -- 51
2020-07-11 05:00:00 25 15 Nordeste 26 Nordeste 0 1011 -- 56
2020-07-11 04:00:00 24.7 16 Este 24 Nordeste 0 1011.1 -- 55
2020-07-11 03:00:00 24.3 14 Este 21 Este 0 1011.3 -- 56
2020-07-11 02:00:00 23.1 13 Nordeste 18 Nordeste 0 1011.6 -0.8 67
2020-07-11 01:00:00 23.8 16 Nordeste 21 Nordeste 0 1011.9 -- 76
2020-07-11 00:00:00 24.2 12 Norte 22 Nordeste 0 1012.1 -- 76
2020-07-10 23:00:00 24.8 15 Este 22 Este 0 1012.4 -- 82
2020-07-10 22:00:00 25.2 12 Este 21 Este 0 1011.7 -- 81
2020-07-10 21:00:00 26.1 13 Este 22 Este 0 1011.3 -- 78
2020-07-10 20:00:00 27.3 15 Este 21 Este 0 1011.2 -- 75
2020-07-10 19:00:00 28.1 11 Nordeste 22 Este 0 1011 -- 69
2020-07-10 18:00:00 30.4 14 Este 21 Sudeste 0 1011.1 -- 49
2020-07-10 17:00:00 29.5 10 Este 17 Este 0 1011.4 -- 54
2020-07-10 16:00:00 27.1 8 Este 24 Este 0.3 1011.9 -- 81
2020-07-10 15:00:00 26.7 18 Este 33 Este 0.4 1012.2 -- 84
2020-07-10 14:00:00 29.1 23 Nordeste 33 Este 0 1012.2 -0.2 68
2020-07-10 13:00:00 29.4 20 Nordeste 32 Este 0 1012.2 -- 62
2020-07-10 12:00:00 28 11 Este 21 Nordeste 0 1012.4 -- 64
2020-07-10 11:00:00 26.6 12 Este 28 Este 0 1012.4 1.1 69
2020-07-10 10:00:00 27.3 17 Nordeste 30 Nordeste 0 1012.1 -- 64
2020-07-10 09:00:00 26.6 14 Nordeste 21 Nordeste 0 1011.3 -- 66
2020-07-10 08:00:00 25 15 Nordeste 22 Norte 0 1011.3 -- 70
2020-07-10 07:00:00 24.7 15 Norte 24 Norte 0 1011.1 -- 74
2020-07-10 06:00:00 24.4 17 Nordeste 26 Norte 0 1010.8 -- 82
2020-07-10 05:00:00 24.6 13 Nordeste 26 Nordeste 0 1011.3 -- 81
2020-07-10 04:00:00 24.5 18 Nordeste 30 Nordeste 0 1011.6 -- 79
2020-07-10 03:00:00 24.7 17 Nordeste 24 Nordeste 0 1012.1 -- 75
2020-07-10 02:00:00 25 7 Nordeste 32 Nordeste 0 1012.7 -- 74
2020-07-10 01:00:00 25.1 16 Nordeste 30 Nordeste 0 1012.4 -- 74
2020-07-10 00:00:00 24.7 9 Este 15 Este 0 1013.7 -- 76
2020-07-09 23:00:00 25.5 4 Sudoeste 30 Nordeste 0 1013.7 -- 74
2020-07-09 22:00:00 25.6 18 Este 35 Este 0 1011.5 -- 75
2020-07-09 21:00:00 26.5 20 Este 30 Este 0 1011.6 -- 66
2020-07-09 20:00:00 27.5 8 Nordeste 17 Nordeste 0 1012.5 -- 55
2020-07-09 19:00:00 27.1 7 Nordeste 33 Este 0 1012.5 -- 64
2020-07-09 18:00:00 27.4 24 Nordeste 32 Este 0 1011.9 -- 66
2020-07-09 17:00:00 28.9 15 Este 45 Este 0 1013 -- 52
2020-07-09 16:00:00 28.2 33 Este 52 Este 0 1012 -- 61
2020-07-09 15:00:00 28.7 34 Este 50 Nordeste 0 1012.7 -- 55
2020-07-09 14:00:00 27.9 34 Este 46 Este 0 1013.4 -- 61
2020-07-09 13:00:00 29.1 28 Este 39 Este 0 1014.6 -- 60
2020-07-09 12:00:00 29.3 20 Este 30 Este 0 1014.2 -- 57
2020-07-09 11:00:00 27.8 10 Nordeste 32 Nordeste 0 1014.8 -- 54
2020-07-09 10:00:00 27.1 26 Este 46 Este 0 1013.1 -- 68
2020-07-09 09:00:00 24.9 34 Este 46 Este 0 1011.6 -- 81
2020-07-09 08:00:00 23.7 21 Nordeste 33 Este 0 1012.2 -- 78
2020-07-09 07:00:00 23.7 10 Oeste 15 Oeste 0 1014.7 -- 78
2020-07-09 06:00:00 23.2 3 Sudoeste 13 Oeste 0 1014.5 -- 77
2020-07-09 05:00:00 23.6 8 Norte 22 Este 0 1013 -- 73
2020-07-09 04:00:00 23 10 Norte 13 Norte 0 1013.5 -- 72
2020-07-09 03:00:00 24.1 10 Noroeste 17 Nordeste 0 1014.5 -- 72
2020-07-09 02:00:00 24.7 12 Este 26 Norte 0 1013.9 -- 74
2020-07-09 01:00:00 25.2 18 Este 33 Este 0 1014 -- 69
2020-07-09 00:00:00 25.4 21 Este 33 Este 0 1014.1 -- 63
2020-07-08 23:00:00 25.2 14 Nordeste 22 Este 0 1014.6 -- 72
2020-07-08 22:00:00 25.3 12 Nordeste 18 Nordeste 0 1014.8 -- 66
2020-07-08 21:00:00 25.7 9 Este 13 Este 0 1015.2 -- 65
2020-07-08 20:00:00 26.3 8 Este 18 Este 0 1014.8 -- 65
2020-07-08 19:00:00 27.3 12 Este 21 Este 0 1014 -- 60
2020-07-08 18:00:00 27.7 14 Este 35 Este 0 1014.3 -- 59
2020-07-08 17:00:00 28.1 25 Este 35 Este 0 1013.4 -- 60
2020-07-08 16:00:00 28.7 19 Este 28 Este 0 1014.7 -- 65
2020-07-08 15:00:00 28.3 15 Este 28 Este 0 1015.7 -- 67
2020-07-08 14:00:00 27.9 17 Este 28 Este 0 1015.6 -- 68
2020-07-08 13:00:00 28.4 18 Este 26 Sudeste 0 1015.4 -- 66
2020-07-08 12:00:00 27.6 14 Este 22 Sudeste 0 1015.7 -- 68
2020-07-08 11:00:00 27.2 11 Este 18 Este 0 1015.6 -- 71
2020-07-08 10:00:00 26.6 9 Este 17 Nordeste 0 1015.1 -- 73
2020-07-08 09:00:00 25.6 9 Nordeste 13 Este 0 1014.6 -- 77
2020-07-08 08:00:00 23.8 5 Norte 11 Norte 0 1014.2 -- 86
2020-07-08 07:00:00 21.9 9 Norte 11 Norte 0 1013.9 -- 92
2020-07-08 06:00:00 21.7 9 Norte 11 Norte 0 1013.7 -- 92
2020-07-08 05:00:00 21.6 4 Norte 11 Norte 0 1013.7 -- 92
2020-07-08 04:00:00 22.2 8 Norte -- -- 0 1013.8 -- 89
2020-07-08 03:00:00 22.5 8 Norte 11 Norte 0 1014.1 -- 88
2020-07-08 02:00:00 22.6 7 Norte 11 Norte 0 1014.3 -- 87
2020-07-08 01:00:00 23.1 8 Norte 9 Norte 0 1014.6 -- 84
2020-07-08 00:00:00 23.9 3 Nordeste 5 Este 0 1014.4 -- 83
2020-07-07 23:00:00 24.1 2 Sudeste 13 Sudeste 0 1014.1 -- 82
2020-07-07 22:00:00 24.9 9 Sudeste 13 Sudeste 0 1013.3 -- 79
2020-07-07 21:00:00 25.8 10 Sudeste 18 Sudeste 0 1012.8 -- 72
2020-07-07 20:00:00 26.9 13 Este 21 Este 0 1012.8 -0.7 66
2020-07-07 19:00:00 28 14 Sudeste 26 Sudeste 0 1012.7 -0.9 62
2020-07-07 18:00:00 28.9 17 Sudeste 26 Sudeste 0 1013 -1 57
2020-07-07 17:00:00 30 13 Sur 28 Sudeste 0 1013.5 -0.8 50
2020-07-07 16:00:00 30.3 16 Sur 28 Sur 0 1013.6 -0.8 48
2020-07-07 15:00:00 30.1 16 Sur 24 Sur 0 1014 -0.3 53
2020-07-07 14:00:00 29.3 14 Sur 28 Sur 0 1014.3 0.1 58
2020-07-07 13:00:00 29.4 13 Sur 24 Sur 0 1014.4 0.5 57
2020-07-07 12:00:00 28.8 15 Sur 22 Sur 0 1014.3 0.6 62
2020-07-07 11:00:00 28.3 14 Sur 21 Sur 0 1014.2 0.8 63
2020-07-07 10:00:00 27.4 12 Sur 21 Sudeste 0 1013.9 0.6 65
2020-07-07 09:00:00 26.4 9 Sur 15 Sur 0 1013.7 0.6 70
2020-07-07 08:00:00 25.2 0 Calma 5 Sur 0 1013.4 0.5 70
2020-07-07 07:00:00 21.6 4 Norte 5 Norte 0 1013.3 -- 81
2020-07-07 06:00:00 23 0 Calma 13 Sur 0 1013.1 -- 76
2020-07-07 05:00:00 24.3 9 Sur 18 Sur 0 1012.9 -- 71
2020-07-07 04:00:00 24.2 12 Sudoeste 18 Sudoeste 0 1013 -- 73
2020-07-07 03:00:00 24.3 12 Sudoeste 18 Sudoeste 0 1013.3 -- 75
2020-07-07 02:00:00 24.3 12 Sudoeste 17 Sudoeste 0 1013.5 -- 77
2020-07-07 01:00:00 24.4 11 Sudoeste 15 Sudoeste 0 1014 -- 79
2020-07-07 00:00:00 24.7 10 Sudoeste 18 Sudoeste 0 1014.1 -- 74